Time;durP1;ratioP1;P1;durP2;ratioP2;P2;SDS_P1;SDS_P2;PMS_P1;PMS_P2;Temp;Humidity;BMP_temperature;BMP_pressure;BME280_temperature;BME280_humidity;BME280_pressure;Samples;Min_cycle;Max_cycle;Signal;HPM_P1;HPM_P2
2023/08/26 00:00:37;;;;;;;6.65;3.08;;;;;;;15.83;95.43;100946.16;6247119;22;20024;-74
2023/08/26 00:03:04;;;;;;;3.65;3.00;;;;;;;15.83;95.80;100950.81;6250321;22;20055;-75
2023/08/26 00:05:31;;;;;;;7.97;2.88;;;;;;;15.81;96.04;100953.22;6249455;22;20020;-74
2023/08/26 00:07:58;;;;;;;3.60;2.75;;;;;;;15.81;96.82;100953.97;6250153;22;20013;-74
2023/08/26 00:10:24;;;;;;;5.25;2.88;;;;;;;15.78;96.80;100943.41;6249159;22;20093;-74
2023/08/26 00:12:52;;;;;;;3.78;3.47;;;;;;;15.76;97.21;100943.88;6249833;22;20454;-74
2023/08/26 00:15:18;;;;;;;5.05;2.70;;;;;;;15.77;97.90;100950.00;6249444;22;20017;-74
2023/08/26 00:17:45;;;;;;;4.40;2.67;;;;;;;15.73;97.71;100942.13;6250239;22;20097;-74
2023/08/26 00:20:12;;;;;;;3.20;3.00;;;;;;;15.73;98.23;100934.09;6250069;22;20040;-74
2023/08/26 00:22:38;;;;;;;4.10;3.03;;;;;;;15.71;97.96;100933.81;6249200;22;20079;-74
2023/08/26 00:25:06;;;;;;;3.13;2.83;;;;;;;15.68;97.83;100935.50;6250543;22;20013;-74
2023/08/26 00:27:32;;;;;;;4.75;2.88;;;;;;;15.65;98.15;100939.13;6248862;22;20468;-74
2023/08/26 00:29:59;;;;;;;7.68;3.13;;;;;;;15.66;98.73;100931.81;6222942;22;20016;-74
2023/08/26 00:32:25;;;;;;;6.43;3.03;;;;;;;15.66;99.29;100921.81;6247690;22;20047;-74
2023/08/26 00:34:52;;;;;;;5.47;2.75;;;;;;;15.65;99.42;100933.00;6250155;22;20383;-74
2023/08/26 00:37:19;;;;;;;3.55;2.72;;;;;;;15.62;99.24;100936.63;6249398;22;20012;-74
2023/08/26 00:39:46;;;;;;;4.72;3.40;;;;;;;15.61;99.39;100925.16;6250098;22;20017;-74
2023/08/26 00:42:13;;;;;;;3.20;2.90;;;;;;;15.62;99.39;100934.69;6249241;22;20063;-74
2023/08/26 00:44:39;;;;;;;3.33;3.08;;;;;;;15.57;99.47;100921.22;6222285;22;20020;-74
2023/08/26 00:47:07;;;;;;;3.75;2.95;;;;;;;15.55;99.92;100932.41;6248252;22;20020;-74
2023/08/26 00:49:35;;;;;;;4.90;3.30;;;;;;;15.56;99.72;100928.53;6247564;22;20021;-74
2023/08/26 00:52:01;;;;;;;3.67;3.05;;;;;;;15.59;99.47;100927.59;6250034;22;20024;-74
2023/08/26 00:54:32;;;;;;;3.65;3.03;;;;;;;15.59;99.67;100927.59;6247428;22;20027;-74
2023/08/26 00:56:59;;;;;;;6.95;3.50;;;;;;;15.60;99.93;100925.63;6262478;22;20075;-74
2023/08/26 00:59:26;;;;;;;5.22;3.20;;;;;;;15.59;99.88;100919.56;6252430;22;20016;-74
2023/08/26 01:01:54;;;;;;;5.72;3.10;;;;;;;15.59;100.00;100921.50;6253183;22;20097;-74
2023/08/26 01:04:21;;;;;;;4.90;3.15;;;;;;;15.58;99.97;100920.75;6252507;22;20016;-74
2023/08/26 01:06:47;;;;;;;5.45;2.92;;;;;;;15.61;99.46;100913.69;6253319;22;20078;-74
2023/08/26 01:09:14;;;;;;;5.60;3.50;;;;;;;15.61;99.95;100929.78;6253063;22;20094;-74
2023/08/26 01:11:54;;;;;;;6.68;3.53;;;;;;;15.56;99.53;100925.09;6279312;22;20136;-74
2023/08/26 01:14:36;;;;;;;5.85;3.38;;;;;;;15.53;99.81;100921.41;6252647;22;20434;-74
2023/08/26 01:17:05;;;;;;;4.28;3.38;;;;;;;15.54;100.00;100919.44;6280819;22;20111;-74
2023/08/26 01:19:39;;;;;;;5.60;3.53;;;;;;;15.53;100.00;100923.34;6279816;22;20076;-73
2023/08/26 01:22:08;;;;;;;6.30;3.65;;;;;;;15.51;100.00;100917.69;6227887;22;20031;-74
2023/08/26 01:24:36;;;;;;;6.70;4.28;;;;;;;15.50;100.00;100916.22;6252239;22;20472;-74
2023/08/26 01:27:03;;;;;;;7.10;3.72;;;;;;;15.47;100.00;100917.16;6252327;22;20097;-74
2023/08/26 01:29:30;;;;;;;3.88;3.42;;;;;;;15.47;100.00;100925.94;6279691;22;20438;-74
2023/08/26 01:32:22;;;;;;;3.50;3.20;;;;;;;15.48;100.00;100929.38;6253285;22;20024;-75
2023/08/26 01:34:57;;;;;;;4.88;3.58;;;;;;;15.46;100.00;100929.84;6280866;22;20438;-74
2023/08/26 01:37:26;;;;;;;4.40;3.35;;;;;;;15.43;100.00;100932.72;6227281;22;20075;-74
2023/08/26 01:39:54;;;;;;;4.50;3.47;;;;;;;15.43;100.00;100930.03;6279588;22;20023;-74
2023/08/26 01:42:24;;;;;;;4.55;3.72;;;;;;;15.41;100.00;100927.06;6279101;22;20103;-74
2023/08/26 01:44:51;;;;;;;3.80;3.38;;;;;;;15.41;100.00;100927.81;6252891;22;20043;-74
2023/08/26 01:47:18;;;;;;;6.22;3.53;;;;;;;15.42;100.00;100928.56;6252741;22;20017;-74
2023/08/26 01:49:44;;;;;;;5.47;3.97;;;;;;;15.41;100.00;100927.06;6252787;22;20020;-74
2023/08/26 01:52:11;;;;;;;6.63;4.07;;;;;;;15.41;100.00;100927.06;6252925;22;20020;-74
2023/08/26 01:54:38;;;;;;;4.07;3.78;;;;;;;15.40;100.00;100920.97;6251615;22;20838;-74
2023/08/26 01:57:05;;;;;;;4.63;4.20;;;;;;;15.40;100.00;100915.59;6252635;22;20016;-74
2023/08/26 01:59:31;;;;;;;6.90;3.95;;;;;;;15.41;100.00;100917.09;6251960;22;20020;-74
2023/08/26 02:01:58;;;;;;;5.43;3.75;;;;;;;15.41;100.00;100922.44;6252881;22;20028;-74
2023/08/26 02:04:24;;;;;;;5.78;3.88;;;;;;;15.41;100.00;100919.03;6279493;22;20024;-74
2023/08/26 02:06:51;;;;;;;7.22;4.03;;;;;;;15.40;100.00;100918.28;6280450;22;20513;-74
2023/08/26 02:09:18;;;;;;;8.00;4.63;;;;;;;15.42;100.00;100923.19;6251885;22;20028;-74
2023/08/26 02:11:44;;;;;;;8.90;4.55;;;;;;;15.45;100.00;100924.94;6252780;22;20024;-74
2023/08/26 02:14:11;;;;;;;9.10;4.82;;;;;;;15.46;100.00;100931.78;6252753;22;20051;-74
2023/08/26 02:16:38;;;;;;;11.38;5.30;;;;;;;15.45;100.00;100931.03;6279858;22;20463;-74
2023/08/26 02:19:04;;;;;;;11.82;5.47;;;;;;;15.42;100.00;100929.28;6252906;22;20041;-74
2023/08/26 02:21:31;;;;;;;8.07;5.43;;;;;;;15.47;100.00;100928.63;6279589;22;20025;-74
2023/08/26 02:23:57;;;;;;;6.97;5.10;;;;;;;15.45;100.00;100922.25;6252225;22;20095;-75
2023/08/26 02:26:24;;;;;;;11.23;6.20;;;;;;;15.42;100.00;100918.56;6251826;22;20046;-75
2023/08/26 02:28:51;;;;;;;10.02;5.47;;;;;;;15.39;100.00;100922.19;6252324;22;20051;-75
2023/08/26 02:31:18;;;;;;;12.15;6.10;;;;;;;15.39;100.00;100932.91;6279529;22;20016;-74
2023/08/26 02:33:44;;;;;;;5.95;5.32;;;;;;;15.38;100.00;100925.31;6252558;22;20051;-74
2023/08/26 02:36:11;;;;;;;6.88;5.25;;;;;;;15.35;100.00;100922.38;6280029;22;20012;-75
2023/08/26 02:38:38;;;;;;;8.63;5.32;;;;;;;15.35;100.00;100930.41;6251215;22;20967;-74
2023/08/26 02:41:06;;;;;;;6.35;5.03;;;;;;;15.32;100.00;100919.88;6279941;22;20468;-74
2023/08/26 02:43:32;;;;;;;8.57;4.85;;;;;;;15.30;100.00;100922.28;6279072;22;20090;-74
2023/08/26 02:45:59;;;;;;;6.75;4.68;;;;;;;15.27;100.00;100920.53;6280041;22;20071;-74
2023/08/26 02:48:27;;;;;;;4.85;4.40;;;;;;;15.26;100.00;100922.50;6251622;22;20020;-74
2023/08/26 02:51:01;;;;;;;9.25;4.28;;;;;;;15.23;100.00;100928.03;6279835;22;20075;-74
2023/08/26 02:53:29;;;;;;;5.60;4.20;;;;;;;15.19;99.58;100919.47;6252653;22;20466;-75
2023/08/26 02:55:57;;;;;;;11.18;4.32;;;;;;;15.18;99.17;100923.38;6253627;22;20024;-74
2023/08/26 02:58:24;;;;;;;4.90;3.95;;;;;;;15.12;97.47;100915.25;6280634;22;20016;-75
2023/08/26 03:00:50;;;;;;;7.85;4.00;;;;;;;15.10;97.84;100917.66;6253869;22;20024;-74
2023/08/26 03:03:18;;;;;;;9.15;4.70;;;;;;;15.08;97.27;100913.94;6253356;22;20051;-74
2023/08/26 03:05:45;;;;;;;7.97;4.25;;;;;;;15.06;97.54;100919.03;6253850;22;20016;-74
2023/08/26 03:08:11;;;;;;;8.90;4.13;;;;;;;15.03;97.80;100912.66;6253306;22;20013;-74
2023/08/26 03:10:38;;;;;;;6.75;4.53;;;;;;;14.99;96.93;100920.16;6253084;22;20592;-74
2023/08/26 03:13:10;;;;;;;6.35;4.60;;;;;;;14.94;97.25;100923.50;6253539;22;20020;-74
2023/08/26 03:15:36;;;;;;;13.50;4.60;;;;;;;14.93;97.02;100919.34;6253199;22;20082;-74
2023/08/26 03:18:03;;;;;;;8.73;4.32;;;;;;;14.88;96.95;100925.34;6253872;22;20031;-74
2023/08/26 03:20:31;;;;;;;8.23;4.65;;;;;;;14.83;97.01;100926.72;6252900;22;20024;-74
2023/08/26 03:22:58;;;;;;;9.15;4.50;;;;;;;14.77;96.73;100930.56;6253287;22;20031;-74
2023/08/26 03:25:26;;;;;;;6.18;4.57;;;;;;;14.71;96.44;100927.78;6253149;22;20458;-74
2023/08/26 03:27:53;;;;;;;7.68;4.40;;;;;;;14.69;96.50;100930.19;6254005;22;20020;-74
2023/08/26 03:30:20;;;;;;;7.07;4.75;;;;;;;14.65;96.59;100934.97;6253057;22;20044;-74
2023/08/26 03:32:47;;;;;;;5.45;4.38;;;;;;;14.63;96.37;100935.44;6281186;22;20108;-76
2023/08/26 03:35:13;;;;;;;7.97;4.53;;;;;;;14.64;96.96;100928.16;6253996;22;20044;-76
2023/08/26 03:37:40;;;;;;;11.18;4.53;;;;;;;14.60;96.42;100924.91;6279753;22;20338;-76
2023/08/26 03:40:08;;;;;;;8.18;4.80;;;;;;;14.56;96.74;100927.03;6281496;22;20016;-76
2023/08/26 03:42:35;;;;;;;8.90;4.18;;;;;;;14.56;96.69;100932.38;6252890;22;20024;-76
2023/08/26 03:45:04;;;;;;;8.38;4.70;;;;;;;14.56;96.71;100932.38;6253718;22;20098;-76
2023/08/26 03:47:32;;;;;;;7.80;3.78;;;;;;;14.58;96.89;100935.34;6252772;22;20446;-76
2023/08/26 03:49:59;;;;;;;7.90;4.47;;;;;;;14.59;96.37;100936.81;6253547;22;20457;-76
2023/08/26 03:52:25;;;;;;;6.82;4.00;;;;;;;14.57;96.56;100929.25;6252486;22;20016;-76
2023/08/26 03:54:52;;;;;;;7.57;4.30;;;;;;;14.54;96.43;100932.09;6253811;22;20414;-76
2023/08/26 03:57:19;;;;;;;10.63;4.18;;;;;;;14.51;96.00;100930.34;6247981;22;20020;-76
2023/08/26 03:59:45;;;;;;;9.80;4.05;;;;;;;14.51;95.87;100933.03;6250296;22;20016;-76
2023/08/26 04:02:12;;;;;;;7.63;4.25;;;;;;;14.50;96.17;100928.88;6248614;22;20103;-76
2023/08/26 04:04:38;;;;;;;7.05;3.65;;;;;;;14.47;96.12;100921.75;6249247;22;20405;-76
2023/08/26 04:07:05;;;;;;;4.47;4.05;;;;;;;14.44;95.80;100930.72;6248029;22;20075;-76
2023/08/26 04:09:32;;;;;;;4.95;4.32;;;;;;;14.39;95.80;100923.31;6222686;22;20556;-76
2023/08/26 04:11:58;;;;;;;13.52;4.25;;;;;;;14.40;95.94;100928.19;6248837;22;20021;-76
2023/08/26 04:14:25;;;;;;;7.85;4.40;;;;;;;14.38;96.18;100927.94;6248098;22;20071;-76
2023/08/26 04:16:52;;;;;;;5.07;4.25;;;;;;;14.37;96.28;100921.09;6250403;22;20444;-76
2023/08/26 04:19:18;;;;;;;7.97;4.40;;;;;;;14.34;96.05;100928.13;6247750;22;20406;-76
2023/08/26 04:21:45;;;;;;;7.43;4.57;;;;;;;14.31;95.92;100937.06;6247926;22;20456;-76
2023/08/26 04:24:12;;;;;;;11.52;4.43;;;;;;;14.29;95.91;100928.75;6248415;22;20461;-76
2023/08/26 04:26:39;;;;;;;7.93;4.68;;;;;;;14.26;95.92;100929.66;6247741;22;20511;-76
2023/08/26 04:29:06;;;;;;;9.85;4.63;;;;;;;14.21;95.96;100930.31;6248743;22;20024;-76
2023/08/26 04:31:32;;;;;;;9.45;4.63;;;;;;;14.20;96.06;100923.47;6247881;22;20016;-76
2023/08/26 04:33:59;;;;;;;11.13;4.25;;;;;;;14.18;96.06;100935.84;6247586;22;20024;-76
2023/08/26 04:36:27;;;;;;;9.52;4.82;;;;;;;14.17;96.88;100945.06;6249631;22;20017;-76
2023/08/26 04:38:53;;;;;;;10.55;4.65;;;;;;;14.15;96.64;100936.75;6250175;22;20020;-76
2023/08/26 04:41:20;;;;;;;6.85;4.85;;;;;;;14.12;96.55;100949.13;6249428;22;20481;-76
2023/08/26 04:43:48;;;;;;;7.10;4.57;;;;;;;14.08;96.78;100945.88;6248160;22;20020;-76
2023/08/26 04:46:15;;;;;;;8.82;5.07;;;;;;;14.06;96.99;100945.59;6249977;22;20033;-76
2023/08/26 04:48:41;;;;;;;8.48;4.60;;;;;;;14.05;97.09;100954.81;6246663;22;20024;-76
2023/08/26 04:51:08;;;;;;;10.05;4.60;;;;;;;14.03;96.91;100949.19;6248254;22;20048;-76
2023/08/26 04:53:34;;;;;;;8.95;4.38;;;;;;;14.01;96.99;100954.25;6247800;22;20021;-76
2023/08/26 04:56:02;;;;;;;7.63;4.90;;;;;;;14.00;97.37;100961.53;6249491;22;20441;-75
2023/08/26 04:58:30;;;;;;;6.80;4.30;;;;;;;14.00;97.13;100963.47;6252935;22;20020;-76
2023/08/26 05:00:57;;;;;;;7.20;4.78;;;;;;;13.98;97.17;100973.94;6253529;22;20027;-76
2023/08/26 05:03:24;;;;;;;7.18;4.63;;;;;;;13.98;97.33;100971.25;6279399;22;20016;-76
2023/08/26 05:05:51;;;;;;;6.10;4.18;;;;;;;13.99;97.08;100970.75;6253428;22;20020;-76
2023/08/26 05:08:17;;;;;;;9.95;5.28;;;;;;;13.97;97.03;100972.44;6252967;22;20021;-76
2023/08/26 05:10:44;;;;;;;12.57;4.72;;;;;;;13.98;97.05;100982.69;6228111;22;20053;-76
2023/08/26 05:13:10;;;;;;;11.43;4.82;;;;;;;13.98;96.95;100981.97;6280816;22;20391;-76
2023/08/26 05:15:37;;;;;;;7.47;4.80;;;;;;;14.01;96.78;100983.69;6251688;22;20458;-76
2023/08/26 05:18:04;;;;;;;12.68;4.78;;;;;;;14.04;97.39;100980.09;6252891;22;20020;-76
2023/08/26 05:20:30;;;;;;;9.77;4.53;;;;;;;14.06;97.28;100985.75;6252404;22;20016;-76
2023/08/26 05:22:57;;;;;;;9.57;4.70;;;;;;;14.09;97.32;100984.84;6253046;22;20022;-77
2023/08/26 05:25:24;;;;;;;10.20;4.55;;;;;;;14.08;96.66;100986.03;6252548;22;20020;-75
2023/08/26 05:27:51;;;;;;;5.75;4.13;;;;;;;14.04;96.68;100988.13;6280555;22;20020;-75
2023/08/26 05:30:18;;;;;;;9.50;4.53;;;;;;;14.07;96.85;100991.84;6279980;22;20012;-77
2023/08/26 05:32:52;;;;;;;4.78;4.00;;;;;;;14.08;96.92;100996.00;6280362;22;20020;-76
2023/08/26 05:35:19;;;;;;;6.57;4.32;;;;;;;14.05;96.49;100999.59;6227034;22;20075;-76
2023/08/26 05:37:46;;;;;;;5.30;4.03;;;;;;;14.05;97.04;101003.00;6253238;22;20055;-75
2023/08/26 05:40:15;;;;;;;8.60;4.80;;;;;;;14.06;96.88;101014.44;6252904;22;20091;-76
2023/08/26 05:42:42;;;;;;;10.05;4.53;;;;;;;14.15;97.29;101011.72;6280149;22;20512;-75
2023/08/26 05:45:09;;;;;;;9.48;4.75;;;;;;;14.82;94.84;101008.34;6253115;22;20023;-75
2023/08/26 05:47:36;;;;;;;9.23;4.43;;;;;;;14.71;94.38;101013.53;6251737;22;20418;-75
2023/08/26 05:50:04;;;;;;;6.47;4.57;;;;;;;15.61;91.42;101010.28;6253000;22;20021;-75
2023/08/26 05:52:31;;;;;;;7.05;4.20;;;;;;;16.75;85.18;101009.91;6252029;22;20066;-75
2023/08/26 05:54:57;;;;;;;8.05;4.43;;;;;;;17.65;78.88;101017.41;6252962;22;20021;-74
2023/08/26 05:57:24;;;;;;;7.30;4.32;;;;;;;18.15;75.31;101022.28;6252266;22;20079;-72
2023/08/26 05:59:51;;;;;;;6.30;3.88;;;;;;;18.58;73.67;101014.06;6252987;22;20389;-72
2023/08/26 06:02:17;;;;;;;10.02;4.13;;;;;;;18.99;70.90;101011.66;6251888;22;20095;-72
2023/08/26 06:04:44;;;;;;;7.43;4.05;;;;;;;19.25;68.84;101016.78;6252725;22;20020;-73
2023/08/26 06:07:10;;;;;;;5.63;4.10;;;;;;;19.74;67.77;101012.53;6252592;22;20450;-73
2023/08/26 06:09:37;;;;;;;9.30;3.92;;;;;;;20.02;67.14;101011.66;6252070;22;20082;-74
2023/08/26 06:12:04;;;;;;;4.53;3.85;;;;;;;20.18;65.57;101014.28;6252775;22;20020;-73
2023/08/26 06:14:31;;;;;;;4.82;3.30;;;;;;;19.87;66.42;101014.69;6251834;22;20067;-74
2023/08/26 06:16:57;;;;;;;6.32;3.67;;;;;;;19.29;67.24;101011.88;6252489;22;20063;-76
2023/08/26 06:19:27;;;;;;;6.55;4.05;;;;;;;19.07;68.26;101011.91;6251719;22;20429;-75
2023/08/26 06:21:53;;;;;;;6.30;4.15;;;;;;;19.18;69.10;101006.50;6252810;22;20017;-74
2023/08/26 06:24:20;;;;;;;9.63;3.85;;;;;;;19.18;68.61;101009.94;6279237;22;20099;-73
2023/08/26 06:26:46;;;;;;;4.90;3.50;;;;;;;18.94;69.38;101015.09;6252984;22;20020;-74
2023/08/26 06:29:16;;;;;;;7.03;3.38;;;;;;;18.77;69.55;101017.78;6253978;22;20016;-74
2023/08/26 06:31:43;;;;;;;8.30;3.53;;;;;;;18.60;70.89;101014.34;6253250;22;20016;-74
2023/08/26 06:34:12;;;;;;;5.32;3.42;;;;;;;18.47;71.66;101022.84;6253790;22;20023;-74
2023/08/26 06:36:44;;;;;;;11.38;3.60;;;;;;;18.21;72.67;101027.69;6280815;22;20450;-74
2023/08/26 06:39:12;;;;;;;7.35;3.33;;;;;;;17.91;73.74;101021.97;6254308;22;20024;-74
2023/08/26 06:41:39;;;;;;;5.90;3.10;;;;;;;17.59;74.80;101023.97;6253318;22;20020;-74
2023/08/26 06:44:05;;;;;;;7.55;3.30;;;;;;;17.55;75.29;101024.19;6253941;22;20074;-73
2023/08/26 06:46:32;;;;;;;5.72;3.40;;;;;;;17.51;75.60;101010.22;6252729;22;20091;-74
2023/08/26 06:48:59;;;;;;;8.30;3.03;;;;;;;17.55;76.07;101008.06;6253942;22;20104;-77
2023/08/26 06:51:26;;;;;;;5.93;3.58;;;;;;;17.59;76.22;101002.44;6253317;22;20024;-77
2023/08/26 06:53:52;;;;;;;4.22;3.40;;;;;;;17.48;76.06;101000.41;6281459;22;20091;-78
2023/08/26 06:56:19;;;;;;;6.25;2.88;;;;;;;17.49;76.76;100998.47;6253035;22;20020;-80
2023/08/26 06:58:45;;;;;;;5.85;3.33;;;;;;;17.45;76.77;100997.94;6281637;22;20012;-78
2023/08/26 07:01:12;;;;;;;8.52;3.10;;;;;;;17.51;77.34;100994.06;6280620;22;20772;-77
2023/08/26 07:03:39;;;;;;;9.68;3.13;;;;;;;17.40;76.83;100995.97;6280571;22;20059;-78
2023/08/26 07:06:05;;;;;;;12.80;3.72;;;;;;;17.48;77.17;100995.03;6281190;22;20017;-77
2023/08/26 07:08:32;;;;;;;6.13;2.85;;;;;;;17.56;77.78;100990.69;6252956;22;20460;-80
2023/08/26 07:10:59;;;;;;;6.93;3.13;;;;;;;17.60;77.20;100996.56;6281393;22;20460;-85
2023/08/26 07:13:25;;;;;;;7.20;3.20;;;;;;;17.80;77.28;100986.91;6279790;22;20434;-78
2023/08/26 07:15:54;;;;;;;4.18;2.85;;;;;;;17.83;76.69;100981.28;6281309;22;20481;-79
2023/08/26 07:18:21;;;;;;;5.13;3.10;;;;;;;17.96;75.96;100991.63;6280393;22;20464;-78
2023/08/26 07:20:48;;;;;;;3.17;2.80;;;;;;;18.02;75.91;100991.63;6281195;22;20091;-80
2023/08/26 07:23:14;;;;;;;8.63;3.53;;;;;;;18.15;76.05;100992.66;6281035;22;20083;-80
2023/08/26 07:25:41;;;;;;;4.43;2.88;;;;;;;18.22;76.40;101002.22;6280582;22;20023;-76
2023/08/26 07:28:08;;;;;;;3.85;2.95;;;;;;;18.43;75.67;101011.56;6280926;22;20537;-76
2023/08/26 07:30:35;;;;;;;6.32;3.03;;;;;;;18.45;75.45;101022.59;6253179;22;20066;-76
2023/08/26 07:33:02;;;;;;;3.58;2.65;;;;;;;18.38;74.41;101031.19;6280985;22;20012;-76
2023/08/26 07:35:29;;;;;;;6.45;3.22;;;;;;;18.10;74.17;101041.84;6280301;22;20020;-78
2023/08/26 07:37:56;;;;;;;7.28;2.83;;;;;;;17.96;75.42;101050.88;6280740;22;20023;-78
2023/08/26 07:40:23;;;;;;;5.35;2.67;;;;;;;18.02;75.82;101043.53;6280228;22;20091;-77
2023/08/26 07:42:49;;;;;;;4.50;2.90;;;;;;;18.25;76.01;101050.50;6280282;22;20418;-77
2023/08/26 07:45:16;;;;;;;5.05;2.55;;;;;;;18.43;74.52;101049.31;6253945;22;20059;-77
2023/08/26 07:47:43;;;;;;;3.90;2.58;;;;;;;18.35;74.37;101055.66;6280661;22;20016;-77
2023/08/26 07:50:13;;;;;;;4.82;2.97;;;;;;;18.35;75.08;101050.28;6228885;22;20016;-77
2023/08/26 07:52:39;;;;;;;2.72;2.35;;;;;;;18.66;75.00;101039.34;6280574;22;20465;-77
2023/08/26 07:55:06;;;;;;;6.63;3.08;;;;;;;18.87;74.44;101053.34;6253725;22;20458;-78
2023/08/26 07:57:33;;;;;;;3.13;2.40;;;;;;;19.09;74.45;101055.31;6279237;22;20047;-78
2023/08/26 08:00:00;;;;;;;6.55;2.60;;;;;;;19.11;73.54;101059.00;6253651;22;20023;-76
2023/08/26 08:02:26;;;;;;;3.72;2.30;;;;;;;18.95;73.02;101063.16;6280418;22;20441;-76
2023/08/26 08:04:53;;;;;;;8.43;3.03;;;;;;;18.95;72.27;101060.44;6280917;22;20454;-78
2023/08/26 08:07:24;;;;;;;3.47;2.67;;;;;;;19.20;71.52;101058.00;6280347;22;20580;-76
2023/08/26 08:09:53;;;;;;;6.32;2.72;;;;;;;19.21;71.62;101056.75;6280838;22;20452;-77
2023/08/26 08:12:19;;;;;;;4.45;3.20;;;;;;;19.22;70.76;101064.38;6279603;22;20446;-77
2023/08/26 08:14:46;;;;;;;4.45;3.33;;;;;;;19.05;71.04;101057.53;6280992;22;20205;-76
2023/08/26 08:17:13;;;;;;;6.80;3.10;;;;;;;18.85;71.99;101056.50;6281050;22;20023;-76
2023/08/26 08:19:42;;;;;;;3.20;2.95;;;;;;;18.62;72.02;101044.97;6280447;22;20012;-76
2023/08/26 08:22:09;;;;;;;4.90;3.00;;;;;;;18.62;72.16;101055.03;6280999;22;20012;-76
2023/08/26 08:24:35;;;;;;;3.17;2.92;;;;;;;18.87;72.45;101048.69;6253003;22;20055;-76
2023/08/26 08:27:02;;;;;;;5.35;2.67;;;;;;;19.07;71.63;101052.38;6280313;22;20095;-77
2023/08/26 08:29:29;;;;;;;4.68;2.85;;;;;;;19.41;71.29;101047.69;6252677;22;20055;-77
2023/08/26 08:31:55;;;;;;;3.95;2.95;;;;;;;19.62;70.26;101052.31;6253572;22;20023;-76
2023/08/26 08:34:22;;;;;;;2.88;2.65;;;;;;;19.65;68.91;101048.63;6253003;22;20065;-77
2023/08/26 08:36:48;;;;;;;6.30;2.90;;;;;;;19.53;69.58;101049.16;6281173;22;20016;-77
2023/08/26 08:39:15;;;;;;;3.13;2.80;;;;;;;19.45;69.19;101054.31;6281048;22;20051;-76
2023/08/26 08:41:45;;;;;;;3.97;3.00;;;;;;;19.29;69.47;101055.78;6279634;22;20397;-75
2023/08/26 08:44:14;;;;;;;7.40;3.13;;;;;;;19.16;70.34;101046.72;6253927;22;20024;-77
2023/08/26 08:46:41;;;;;;;4.00;3.10;;;;;;;19.25;70.26;101052.59;6280183;22;20043;-74
2023/08/26 08:49:08;;;;;;;3.83;2.88;;;;;;;19.25;70.85;101052.59;6280968;22;20016;-75
2023/08/26 08:51:36;;;;;;;3.05;2.85;;;;;;;19.68;69.95;101054.28;6280158;22;20012;-75
2023/08/26 08:54:04;;;;;;;3.90;3.00;;;;;;;20.02;69.41;101044.81;6280598;22;20434;-75
2023/08/26 08:56:32;;;;;;;3.40;3.10;;;;;;;20.14;68.27;101046.25;6278661;22;20044;-75
2023/08/26 08:59:01;;;;;;;9.02;3.40;;;;;;;20.35;68.73;101046.66;6281173;22;20042;-75
2023/08/26 09:01:29;;;;;;;4.28;2.90;;;;;;;20.60;67.52;101048.25;6280190;22;20019;-74
2023/08/26 09:03:56;;;;;;;4.05;2.70;;;;;;;20.59;67.10;101048.75;6253489;22;20071;-76
2023/08/26 09:06:22;;;;;;;4.60;2.67;;;;;;;20.59;67.10;101044.06;6253087;22;20485;-76
2023/08/26 09:08:50;;;;;;;5.20;2.97;;;;;;;20.63;66.43;101041.84;6253736;22;20446;-75
2023/08/26 09:11:17;;;;;;;4.45;2.80;;;;;;;20.83;66.24;101046.09;6280069;22;20012;-74
2023/08/26 09:13:45;;;;;;;5.38;2.70;;;;;;;20.94;63.68;101042.59;6280706;22;20021;-74
2023/08/26 09:16:12;;;;;;;2.90;2.70;;;;;;;21.00;65.42;101042.56;6280666;22;20525;-75
2023/08/26 09:18:39;;;;;;;7.22;2.75;;;;;;;21.27;64.24;101044.28;6279997;22;20020;-74
2023/08/26 09:21:13;;;;;;;2.65;2.45;;;;;;;21.28;61.08;101051.91;6280638;22;20023;-74
2023/08/26 09:23:41;;;;;;;4.15;2.47;;;;;;;21.30;62.66;101062.97;6280002;22;20022;-74
2023/08/26 09:26:08;;;;;;;3.30;3.08;;;;;;;21.33;61.21;101055.81;6280123;22;20091;-74
2023/08/26 09:28:36;;;;;;;5.00;2.97;;;;;;;21.51;61.92;101065.25;6279990;22;20012;-74
2023/08/26 09:31:07;;;;;;;4.63;2.80;;;;;;;21.73;62.07;101065.00;6280771;22;20032;-75
2023/08/26 09:33:34;;;;;;;3.25;3.05;;;;;;;21.70;60.54;101066.03;6279773;22;20027;-74
2023/08/26 09:36:01;;;;;;;4.72;3.22;;;;;;;21.80;61.88;101072.56;6253051;22;20032;-75
2023/08/26 09:38:44;;;;;;;5.55;3.45;;;;;;;22.18;59.80;101073.38;6252497;22;20018;-75
2023/08/26 09:41:11;;;;;;;6.57;3.40;;;;;;;21.93;58.73;101069.22;6280521;22;20023;-76
2023/08/26 09:43:43;;;;;;;4.63;3.58;;;;;;;21.57;61.27;101063.97;6279503;22;20020;-76
2023/08/26 09:46:17;;;;;;;3.08;2.88;;;;;;;22.00;60.00;101067.91;6280491;22;20452;-75
2023/08/26 09:48:44;;;;;;;5.05;3.58;;;;;;;21.97;59.34;101075.09;6280717;22;20449;-74
2023/08/26 09:51:27;;;;;;;3.53;3.17;;;;;;;21.96;58.82;101076.34;6280406;22;20092;-75
2023/08/26 09:53:55;;;;;;;3.20;3.00;;;;;;;22.01;58.57;101075.56;6280027;22;20437;-74
2023/08/26 09:56:26;;;;;;;3.63;3.33;;;;;;;22.07;57.42;101081.66;6278820;22;20012;-75
2023/08/26 09:58:54;;;;;;;4.38;3.10;;;;;;;21.62;57.50;101073.97;6280600;22;20066;-75
2023/08/26 10:01:22;;;;;;;3.72;3.45;;;;;;;21.31;59.18;101074.53;6252364;22;20484;-74
2023/08/26 10:04:09;;;;;;;3.80;3.50;;;;;;;21.22;60.88;101080.28;6283711;22;20390;-75
2023/08/26 10:06:42;;;;;;;3.33;3.13;;;;;;;21.64;60.97;101089.72;6282794;22;20817;-75
2023/08/26 10:09:24;;;;;;;3.63;3.33;;;;;;;21.68;59.93;101084.75;6282951;22;20012;-74
2023/08/26 10:11:54;;;;;;;4.05;3.30;;;;;;;21.80;58.59;101094.25;6283477;22;20035;-74
2023/08/26 10:14:24;;;;;;;4.10;3.65;;;;;;;21.42;59.12;101082.56;6282701;22;20384;-74
2023/08/26 10:16:53;;;;;;;4.50;3.78;;;;;;;21.14;60.36;101095.59;6283422;22;20013;-75
2023/08/26 10:19:20;;;;;;;4.75;3.55;;;;;;;21.05;61.57;101099.34;6282655;22;20452;-75
2023/08/26 10:21:48;;;;;;;3.47;3.20;;;;;;;20.82;61.55;101093.34;6283922;22;20012;-76
2023/08/26 10:24:15;;;;;;;3.50;3.30;;;;;;;20.75;62.19;101099.31;6282875;22;20091;-77
2023/08/26 10:26:42;;;;;;;4.18;3.72;;;;;;;20.67;63.20;101090.25;6282873;22;20046;-77
2023/08/26 10:29:10;;;;;;;3.30;3.00;;;;;;;20.58;62.67;101094.00;6256548;22;20012;-73
2023/08/26 10:31:38;;;;;;;6.18;3.45;;;;;;;20.52;62.83;101076.31;6255424;22;20071;-74
2023/08/26 10:34:05;;;;;;;4.43;2.97;;;;;;;21.11;61.86;101080.34;6283538;22;20099;-73
2023/08/26 10:36:34;;;;;;;3.50;3.20;;;;;;;21.54;62.40;101080.50;6254372;22;20442;-74
2023/08/26 10:39:02;;;;;;;3.78;3.40;;;;;;;21.89;59.85;101079.63;6256546;22;20008;-74
2023/08/26 10:41:29;;;;;;;4.00;3.20;;;;;;;22.07;59.54;101076.22;6254962;22;20091;-73
2023/08/26 10:44:01;;;;;;;4.30;2.80;;;;;;;22.19;58.70;101069.44;6283300;22;20023;-73
2023/08/26 10:46:37;;;;;;;3.67;2.80;;;;;;;22.24;57.88;101068.63;6282535;22;20449;-73
2023/08/26 10:49:04;;;;;;;3.20;2.90;;;;;;;22.04;58.79;101069.09;6283841;22;20465;-74
2023/08/26 10:51:34;;;;;;;3.90;3.58;;;;;;;21.79;59.58;101062.25;6281561;22;20434;-74
2023/08/26 10:54:04;;;;;;;5.95;3.15;;;;;;;21.42;60.50;101065.59;6283187;22;20012;-74
2023/08/26 10:56:34;;;;;;;3.50;3.30;;;;;;;21.13;61.93;101062.38;6281844;22;20020;-75
2023/08/26 10:59:03;;;;;;;4.03;3.20;;;;;;;21.01;61.76;101066.41;6283276;22;20023;-74
2023/08/26 11:01:34;;;;;;;3.30;3.10;;;;;;;20.88;63.08;101066.97;6282183;22;20016;-73
2023/08/26 11:04:03;;;;;;;4.13;3.10;;;;;;;21.00;64.09;101061.50;6256117;22;20048;-73
2023/08/26 11:06:37;;;;;;;4.53;3.05;;;;;;;21.06;63.29;101062.19;6281457;22;20016;-74
2023/08/26 11:09:05;;;;;;;5.88;3.03;;;;;;;21.00;64.43;101064.19;6255864;22;20486;-73
2023/08/26 11:11:32;;;;;;;3.03;2.72;;;;;;;20.91;63.17;101057.84;6282061;22;20083;-74
2023/08/26 11:13:59;;;;;;;5.43;3.60;;;;;;;20.79;62.76;101061.91;6281530;22;20016;-73
2023/08/26 11:16:26;;;;;;;3.03;2.80;;;;;;;20.70;62.52;101056.78;6280248;22;20453;-73
2023/08/26 11:18:53;;;;;;;3.33;2.53;;;;;;;20.56;63.25;101058.59;6280986;22;20485;-74
2023/08/26 11:21:22;;;;;;;2.83;2.60;;;;;;;20.51;64.80;101062.06;6279392;22;20012;-74
2023/08/26 11:23:48;;;;;;;3.95;3.53;;;;;;;20.42;69.06;101067.03;6253623;22;20036;-74
2023/08/26 11:26:20;;;;;;;4.60;3.22;;;;;;;20.10;71.67;101070.09;6280631;22;20020;-74